sensor_id;sensor_type;location;lat;lon;timestamp;pressure;altitude;pressure_sealevel;temperature;humidity
69153;BME280;56261;51.580;4.578;2022-08-21T00:02:27;101853.75;;;15.17;94.42
69153;BME280;56261;51.580;4.578;2022-08-21T00:04:53;101854.94;;;15.14;94.92
69153;BME280;56261;51.580;4.578;2022-08-21T00:07:19;101846.03;;;15.14;95.30
69153;BME280;56261;51.580;4.578;2022-08-21T00:09:44;101843.66;;;15.19;94.78
69153;BME280;56261;51.580;4.578;2022-08-21T00:12:10;101848.72;;;15.14;95.18
69153;BME280;56261;51.580;4.578;2022-08-21T00:14:36;101853.81;;;15.01;96.26
69153;BME280;56261;51.580;4.578;2022-08-21T00:17:03;101849.28;;;15.01;96.12
69153;BME280;56261;51.580;4.578;2022-08-21T00:19:29;101851.81;;;15.03;96.71
69153;BME280;56261;51.580;4.578;2022-08-21T00:21:55;101844.44;;;14.97;96.74
69153;BME280;56261;51.580;4.578;2022-08-21T00:24:22;101843.59;;;14.96;97.32
69153;BME280;56261;51.580;4.578;2022-08-21T00:26:48;101835.03;;;14.92;97.34
69153;BME280;56261;51.580;4.578;2022-08-21T00:29:14;101845.44;;;14.95;97.29
69153;BME280;56261;51.580;4.578;2022-08-21T00:31:41;101839.53;;;15.00;97.30
69153;BME280;56261;51.580;4.578;2022-08-21T00:34:08;101832.00;;;14.95;97.31
69153;BME280;56261;51.580;4.578;2022-08-21T00:36:34;101829.81;;;14.99;97.18
69153;BME280;56261;51.580;4.578;2022-08-21T00:39:00;101827.66;;;14.94;97.54
69153;BME280;56261;51.580;4.578;2022-08-21T00:41:26;101832.84;;;14.96;97.42
69153;BME280;56261;51.580;4.578;2022-08-21T00:43:52;101837.03;;;14.99;97.96
69153;BME280;56261;51.580;4.578;2022-08-21T00:46:18;101836.34;;;15.05;97.57
69153;BME280;56261;51.580;4.578;2022-08-21T00:48:44;101830.78;;;15.06;96.69
69153;BME280;56261;51.580;4.578;2022-08-21T00:51:10;101829.78;;;15.07;95.87
69153;BME280;56261;51.580;4.578;2022-08-21T00:53:39;101831.44;;;15.08;96.35
69153;BME280;56261;51.580;4.578;2022-08-21T00:56:06;101829.59;;;15.09;96.26
69153;BME280;56261;51.580;4.578;2022-08-21T00:58:33;101830.47;;;15.01;96.56
69153;BME280;56261;51.580;4.578;2022-08-21T01:01:03;101824.16;;;14.86;96.93
69153;BME280;56261;51.580;4.578;2022-08-21T01:03:33;101837.59;;;14.86;96.98
69153;BME280;56261;51.580;4.578;2022-08-21T01:05:59;101838.41;;;14.86;97.44
69153;BME280;56261;51.580;4.578;2022-08-21T01:08:25;101839.97;;;14.81;97.27
69153;BME280;56261;51.580;4.578;2022-08-21T01:10:52;101830.22;;;14.80;98.07
69153;BME280;56261;51.580;4.578;2022-08-21T01:13:19;101840.94;;;14.80;98.46
69153;BME280;56261;51.580;4.578;2022-08-21T01:15:47;101838.31;;;14.71;98.03
69153;BME280;56261;51.580;4.578;2022-08-21T01:18:16;101844.19;;;14.67;98.96
69153;BME280;56261;51.580;4.578;2022-08-21T01:20:45;101840.69;;;14.58;99.23
69153;BME280;56261;51.580;4.578;2022-08-21T01:23:11;101829.44;;;14.55;99.72
69153;BME280;56261;51.580;4.578;2022-08-21T01:25:37;101834.13;;;14.52;100.00
69153;BME280;56261;51.580;4.578;2022-08-21T01:28:13;101843.53;;;14.57;100.00
69153;BME280;56261;51.580;4.578;2022-08-21T01:30:40;101837.34;;;14.56;100.00
69153;BME280;56261;51.580;4.578;2022-08-21T01:33:07;101841.69;;;14.57;99.58
69153;BME280;56261;51.580;4.578;2022-08-21T01:35:32;101833.97;;;14.54;99.56
69153;BME280;56261;51.580;4.578;2022-08-21T01:37:57;101843.88;;;14.53;99.82
69153;BME280;56261;51.580;4.578;2022-08-21T01:40:23;101826.06;;;14.44;100.00
69153;BME280;56261;51.580;4.578;2022-08-21T01:42:48;101831.13;;;14.47;100.00
69153;BME280;56261;51.580;4.578;2022-08-21T01:45:15;101827.09;;;14.43;99.97
69153;BME280;56261;51.580;4.578;2022-08-21T01:47:41;101827.25;;;14.42;100.00
69153;BME280;56261;51.580;4.578;2022-08-21T01:50:10;101826.28;;;14.35;100.00
69153;BME280;56261;51.580;4.578;2022-08-21T01:52:36;101821.94;;;14.33;100.00
69153;BME280;56261;51.580;4.578;2022-08-21T01:55:04;101820.22;;;14.32;100.00
69153;BME280;56261;51.580;4.578;2022-08-21T01:57:30;101821.78;;;14.27;100.00
69153;BME280;56261;51.580;4.578;2022-08-21T01:59:58;101818.72;;;14.38;100.00
69153;BME280;56261;51.580;4.578;2022-08-21T02:02:24;101816.72;;;14.40;100.00
69153;BME280;56261;51.580;4.578;2022-08-21T02:04:49;101806.66;;;14.42;100.00
69153;BME280;56261;51.580;4.578;2022-08-21T02:07:14;101809.81;;;14.46;99.79
69153;BME280;56261;51.580;4.578;2022-08-21T02:09:40;101806.66;;;14.42;100.00
69153;BME280;56261;51.580;4.578;2022-08-21T02:12:09;101804.47;;;14.29;100.00
69153;BME280;56261;51.580;4.578;2022-08-21T02:14:35;101810.19;;;14.26;100.00
69153;BME280;56261;51.580;4.578;2022-08-21T02:17:01;101808.88;;;14.22;100.00
69153;BME280;56261;51.580;4.578;2022-08-21T02:19:27;101814.75;;;14.18;100.00
69153;BME280;56261;51.580;4.578;2022-08-21T02:21:52;101802.97;;;14.19;100.00
69153;BME280;56261;51.580;4.578;2022-08-21T02:24:17;101807.00;;;14.23;100.00
69153;BME280;56261;51.580;4.578;2022-08-21T02:26:43;101806.34;;;14.21;100.00
69153;BME280;56261;51.580;4.578;2022-08-21T02:29:08;101804.81;;;14.26;100.00
69153;BME280;56261;51.580;4.578;2022-08-21T02:31:34;101814.22;;;14.22;100.00
69153;BME280;56261;51.580;4.578;2022-08-21T02:33:59;101796.44;;;14.21;100.00
69153;BME280;56261;51.580;4.578;2022-08-21T02:36:25;101799.47;;;14.18;100.00
69153;BME280;56261;51.580;4.578;2022-08-21T02:38:50;101804.16;;;14.16;100.00
69153;BME280;56261;51.580;4.578;2022-08-21T02:41:18;101810.19;;;14.26;100.00
69153;BME280;56261;51.580;4.578;2022-08-21T02:43:45;101805.97;;;14.32;100.00
69153;BME280;56261;51.580;4.578;2022-08-21T02:46:12;101808.47;;;14.42;100.00
69153;BME280;56261;51.580;4.578;2022-08-21T02:48:39;101798.59;;;14.42;100.00
69153;BME280;56261;51.580;4.578;2022-08-21T02:51:11;101803.28;;;14.40;100.00
69153;BME280;56261;51.580;4.578;2022-08-21T02:53:37;101798.09;;;14.39;100.00
69153;BME280;56261;51.580;4.578;2022-08-21T02:56:05;101800.25;;;14.51;100.00
69153;BME280;56261;51.580;4.578;2022-08-21T02:58:35;101799.22;;;14.52;100.00
69153;BME280;56261;51.580;4.578;2022-08-21T03:01:01;101805.28;;;14.55;100.00
69153;BME280;56261;51.580;4.578;2022-08-21T03:03:27;101801.56;;;14.64;100.00
69153;BME280;56261;51.580;4.578;2022-08-21T03:05:54;101802.59;;;14.55;100.00
69153;BME280;56261;51.580;4.578;2022-08-21T03:08:20;101805.09;;;14.48;100.00
69153;BME280;56261;51.580;4.578;2022-08-21T03:10:48;101804.28;;;14.47;100.00
69153;BME280;56261;51.580;4.578;2022-08-21T03:13:15;101799.75;;;14.40;100.00
69153;BME280;56261;51.580;4.578;2022-08-21T03:15:41;101796.91;;;14.41;100.00
69153;BME280;56261;51.580;4.578;2022-08-21T03:18:08;101787.03;;;14.33;100.00
69153;BME280;56261;51.580;4.578;2022-08-21T03:20:35;101788.69;;;14.35;100.00
69153;BME280;56261;51.580;4.578;2022-08-21T03:23:04;101796.22;;;14.39;100.00
69153;BME280;56261;51.580;4.578;2022-08-21T03:25:30;101788.34;;;14.38;100.00
69153;BME280;56261;51.580;4.578;2022-08-21T03:28:02;101786.84;;;14.43;100.00
69153;BME280;56261;51.580;4.578;2022-08-21T03:30:28;101784.81;;;14.45;100.00
69153;BME280;56261;51.580;4.578;2022-08-21T03:32:56;101779.63;;;14.44;100.00
69153;BME280;56261;51.580;4.578;2022-08-21T03:35:22;101776.09;;;14.43;100.00
69153;BME280;56261;51.580;4.578;2022-08-21T03:37:47;101772.75;;;14.41;100.00
69153;BME280;56261;51.580;4.578;2022-08-21T03:40:16;101779.47;;;14.37;100.00
69153;BME280;56261;51.580;4.578;2022-08-21T03:42:42;101774.44;;;14.42;100.00
69153;BME280;56261;51.580;4.578;2022-08-21T03:45:09;101772.94;;;14.31;100.00
69153;BME280;56261;51.580;4.578;2022-08-21T03:47:35;101767.06;;;14.28;100.00
69153;BME280;56261;51.580;4.578;2022-08-21T03:50:02;101768.09;;;14.27;100.00
69153;BME280;56261;51.580;4.578;2022-08-21T03:52:28;101773.78;;;14.24;100.00
69153;BME280;56261;51.580;4.578;2022-08-21T03:54:54;101775.97;;;14.28;100.00
69153;BME280;56261;51.580;4.578;2022-08-21T03:57:19;101775.81;;;14.22;100.00
69153;BME280;56261;51.580;4.578;2022-08-21T03:59:45;101772.44;;;14.20;100.00
69153;BME280;56261;51.580;4.578;2022-08-21T04:02:12;101771.09;;;14.24;100.00
69153;BME280;56261;51.580;4.578;2022-08-21T04:04:39;101777.97;;;14.26;100.00
69153;BME280;56261;51.580;4.578;2022-08-21T04:07:04;101775.31;;;14.18;100.00
69153;BME280;56261;51.580;4.578;2022-08-21T04:09:29;101777.50;;;14.23;100.00
69153;BME280;56261;51.580;4.578;2022-08-21T04:11:56;101781.16;;;14.22;100.00
69153;BME280;56261;51.580;4.578;2022-08-21T04:14:22;101785.38;;;14.16;100.00
69153;BME280;56261;51.580;4.578;2022-08-21T04:16:47;101783.53;;;14.25;100.00
69153;BME280;56261;51.580;4.578;2022-08-21T04:19:13;101787.25;;;14.16;100.00
69153;BME280;56261;51.580;4.578;2022-08-21T04:21:39;101789.22;;;14.22;100.00
69153;BME280;56261;51.580;4.578;2022-08-21T04:24:06;101787.19;;;14.24;100.00
69153;BME280;56261;51.580;4.578;2022-08-21T04:26:33;101788.38;;;14.21;100.00
69153;BME280;56261;51.580;4.578;2022-08-21T04:28:59;101776.81;;;14.21;100.00
69153;BME280;56261;51.580;4.578;2022-08-21T04:31:25;101788.38;;;14.21;100.00
69153;BME280;56261;51.580;4.578;2022-08-21T04:33:51;101786.22;;;14.17;100.00
69153;BME280;56261;51.580;4.578;2022-08-21T04:36:17;101788.91;;;14.17;100.00
69153;BME280;56261;51.580;4.578;2022-08-21T04:38:43;101797.81;;;14.09;100.00
69153;BME280;56261;51.580;4.578;2022-08-21T04:41:08;101783.22;;;14.03;100.00
69153;BME280;56261;51.580;4.578;2022-08-21T04:43:34;101799.78;;;14.15;100.00
69153;BME280;56261;51.580;4.578;2022-08-21T04:46:00;101805.66;;;14.10;100.00
69153;BME280;56261;51.580;4.578;2022-08-21T04:48:25;101806.53;;;14.03;100.00
69153;BME280;56261;51.580;4.578;2022-08-21T04:51:01;101807.34;;;14.11;100.00
69153;BME280;56261;51.580;4.578;2022-08-21T04:53:38;101809.03;;;14.12;100.00
69153;BME280;56261;51.580;4.578;2022-08-21T04:56:11;101810.53;;;14.15;100.00
69153;BME280;56261;51.580;4.578;2022-08-21T04:58:39;101804.16;;;14.08;100.00
69153;BME280;56261;51.580;4.578;2022-08-21T05:01:07;101812.72;;;14.11;100.00
69153;BME280;56261;51.580;4.578;2022-08-21T05:03:34;101808.50;;;14.17;100.00
69153;BME280;56261;51.580;4.578;2022-08-21T05:06:04;101813.03;;;14.08;100.00
69153;BME280;56261;51.580;4.578;2022-08-21T05:08:32;101813.22;;;14.15;100.00
69153;BME280;56261;51.580;4.578;2022-08-21T05:10:58;101820.44;;;14.23;100.00
69153;BME280;56261;51.580;4.578;2022-08-21T05:13:24;101819.75;;;14.29;100.00
69153;BME280;56261;51.580;4.578;2022-08-21T05:15:49;101815.53;;;14.43;100.00
69153;BME280;56261;51.580;4.578;2022-08-21T05:18:14;101819.03;;;14.43;100.00
69153;BME280;56261;51.580;4.578;2022-08-21T05:20:40;101815.69;;;14.41;100.00
69153;BME280;56261;51.580;4.578;2022-08-21T05:23:11;101807.63;;;14.41;100.00
69153;BME280;56261;51.580;4.578;2022-08-21T05:25:37;101808.66;;;14.40;100.00
69153;BME280;56261;51.580;4.578;2022-08-21T05:28:03;101818.38;;;14.49;100.00
69153;BME280;56261;51.580;4.578;2022-08-21T05:30:29;101820.19;;;14.65;100.00
69153;BME280;56261;51.580;4.578;2022-08-21T05:33:06;101812.97;;;14.74;100.00
69153;BME280;56261;51.580;4.578;2022-08-21T05:35:32;101819.00;;;14.68;100.00
69153;BME280;56261;51.580;4.578;2022-08-21T05:37:58;101819.47;;;14.80;100.00
69153;BME280;56261;51.580;4.578;2022-08-21T05:40:25;101817.91;;;14.93;100.00
69153;BME280;56261;51.580;4.578;2022-08-21T05:42:52;101819.06;;;14.99;100.00
69153;BME280;56261;51.580;4.578;2022-08-21T05:45:18;101822.28;;;14.94;100.00
69153;BME280;56261;51.580;4.578;2022-08-21T05:47:43;101823.75;;;15.05;100.00
69153;BME280;56261;51.580;4.578;2022-08-21T05:50:09;101826.38;;;15.13;100.00
69153;BME280;56261;51.580;4.578;2022-08-21T05:52:35;101817.63;;;15.20;100.00
69153;BME280;56261;51.580;4.578;2022-08-21T05:55:00;101822.28;;;15.26;100.00
69153;BME280;56261;51.580;4.578;2022-08-21T05:57:25;101812.22;;;15.28;100.00
69153;BME280;56261;51.580;4.578;2022-08-21T05:59:51;101818.72;;;15.33;100.00
69153;BME280;56261;51.580;4.578;2022-08-21T06:02:18;101803.94;;;15.61;100.00
69153;BME280;56261;51.580;4.578;2022-08-21T06:04:43;101809.34;;;15.84;100.00
69153;BME280;56261;51.580;4.578;2022-08-21T06:07:09;101816.72;;;16.05;100.00
69153;BME280;56261;51.580;4.578;2022-08-21T06:09:34;101811.00;;;16.23;98.42
69153;BME280;56261;51.580;4.578;2022-08-21T06:12:07;101811.31;;;16.57;97.30
69153;BME280;56261;51.580;4.578;2022-08-21T06:14:33;101812.63;;;16.62;96.48
69153;BME280;56261;51.580;4.578;2022-08-21T06:17:09;101816.44;;;16.82;95.40
69153;BME280;56261;51.580;4.578;2022-08-21T06:19:36;101818.31;;;16.82;93.95
69153;BME280;56261;51.580;4.578;2022-08-21T06:22:02;101810.94;;;17.05;93.06
69153;BME280;56261;51.580;4.578;2022-08-21T06:24:28;101805.25;;;17.15;91.33
69153;BME280;56261;51.580;4.578;2022-08-21T06:26:54;101807.22;;;17.42;91.58
69153;BME280;56261;51.580;4.578;2022-08-21T06:29:20;101801.69;;;18.15;89.87
69153;BME280;56261;51.580;4.578;2022-08-21T06:31:46;101797.06;;;18.09;87.75
69153;BME280;56261;51.580;4.578;2022-08-21T06:34:12;101803.75;;;17.70;88.11
69153;BME280;56261;51.580;4.578;2022-08-21T06:36:38;101797.00;;;18.02;89.05
69153;BME280;56261;51.580;4.578;2022-08-21T06:39:04;101800.00;;;17.86;88.22
69153;BME280;56261;51.580;4.578;2022-08-21T06:41:32;101797.66;;;17.83;88.76
69153;BME280;56261;51.580;4.578;2022-08-21T06:43:58;101796.50;;;17.92;89.04
69153;BME280;56261;51.580;4.578;2022-08-21T06:46:25;101796.97;;;17.96;88.73
69153;BME280;56261;51.580;4.578;2022-08-21T06:48:51;101792.84;;;18.00;88.58
69153;BME280;56261;51.580;4.578;2022-08-21T06:51:17;101789.88;;;18.51;87.95
69153;BME280;56261;51.580;4.578;2022-08-21T06:53:43;101784.06;;;18.89;85.78
69153;BME280;56261;51.580;4.578;2022-08-21T06:56:08;101794.03;;;18.95;83.51
69153;BME280;56261;51.580;4.578;2022-08-21T06:58:33;101798.00;;;18.93;84.49
69153;BME280;56261;51.580;4.578;2022-08-21T07:00:59;101797.22;;;18.71;83.77
69153;BME280;56261;51.580;4.578;2022-08-21T07:03:33;101786.56;;;18.97;82.50
69153;BME280;56261;51.580;4.578;2022-08-21T07:05:59;101793.81;;;18.90;83.82
69153;BME280;56261;51.580;4.578;2022-08-21T07:08:26;101795.38;;;19.19;84.31
69153;BME280;56261;51.580;4.578;2022-08-21T07:10:57;101793.81;;;19.45;82.10
69153;BME280;56261;51.580;4.578;2022-08-21T07:13:23;101795.47;;;19.53;80.89
69153;BME280;56261;51.580;4.578;2022-08-21T07:15:48;101787.25;;;19.13;81.41
69153;BME280;56261;51.580;4.578;2022-08-21T07:18:14;101792.94;;;19.44;81.63
69153;BME280;56261;51.580;4.578;2022-08-21T07:20:41;101791.50;;;19.48;81.42
69153;BME280;56261;51.580;4.578;2022-08-21T07:23:10;101793.09;;;19.16;81.82
69153;BME280;56261;51.580;4.578;2022-08-21T07:25:36;101789.28;;;19.92;81.33
69153;BME280;56261;51.580;4.578;2022-08-21T07:28:02;101786.34;;;20.14;80.24
69153;BME280;56261;51.580;4.578;2022-08-21T07:30:28;101788.22;;;20.06;80.16
69153;BME280;56261;51.580;4.578;2022-08-21T07:32:54;101770.25;;;20.59;78.51
69153;BME280;56261;51.580;4.578;2022-08-21T07:35:20;101768.97;;;20.68;75.52
69153;BME280;56261;51.580;4.578;2022-08-21T07:37:46;101778.06;;;20.80;75.32
69153;BME280;56261;51.580;4.578;2022-08-21T07:40:13;101783.81;;;20.39;76.69
69153;BME280;56261;51.580;4.578;2022-08-21T07:42:41;101791.28;;;20.63;78.46
69153;BME280;56261;51.580;4.578;2022-08-21T07:45:07;101786.50;;;20.65;78.00
69153;BME280;56261;51.580;4.578;2022-08-21T07:47:32;101784.69;;;21.68;74.01
69153;BME280;56261;51.580;4.578;2022-08-21T07:49:58;101788.94;;;20.73;75.17
69153;BME280;56261;51.580;4.578;2022-08-21T07:52:23;101789.25;;;20.39;76.02
69153;BME280;56261;51.580;4.578;2022-08-21T07:54:48;101784.81;;;20.64;76.69
69153;BME280;56261;51.580;4.578;2022-08-21T07:57:14;101794.63;;;21.55;74.60
69153;BME280;56261;51.580;4.578;2022-08-21T07:59:39;101792.88;;;21.29;74.45
69153;BME280;56261;51.580;4.578;2022-08-21T08:02:05;101788.97;;;21.12;72.72
69153;BME280;56261;51.580;4.578;2022-08-21T08:04:30;101782.78;;;21.05;75.03
69153;BME280;56261;51.580;4.578;2022-08-21T08:06:55;101796.09;;;21.13;74.37
69153;BME280;56261;51.580;4.578;2022-08-21T08:09:21;101785.34;;;21.31;74.66
69153;BME280;56261;51.580;4.578;2022-08-21T08:11:46;101782.84;;;21.68;71.58
69153;BME280;56261;51.580;4.578;2022-08-21T08:14:12;101792.22;;;21.97;72.62
69153;BME280;56261;51.580;4.578;2022-08-21T08:16:37;101775.31;;;22.57;69.88
69153;BME280;56261;51.580;4.578;2022-08-21T08:19:03;101783.97;;;22.29;69.54
69153;BME280;56261;51.580;4.578;2022-08-21T08:21:28;101787.97;;;21.76;71.44
69153;BME280;56261;51.580;4.578;2022-08-21T08:23:54;101771.59;;;22.89;68.43
69153;BME280;56261;51.580;4.578;2022-08-21T08:26:19;101774.13;;;21.85;71.56
69153;BME280;56261;51.580;4.578;2022-08-21T08:28:45;101780.22;;;22.05;70.23
69153;BME280;56261;51.580;4.578;2022-08-21T08:31:13;101775.31;;;22.14;69.81
69153;BME280;56261;51.580;4.578;2022-08-21T08:33:38;101766.31;;;22.75;68.01
69153;BME280;56261;51.580;4.578;2022-08-21T08:36:04;101772.59;;;22.14;69.22
69153;BME280;56261;51.580;4.578;2022-08-21T08:38:30;101771.50;;;21.96;70.75
69153;BME280;56261;51.580;4.578;2022-08-21T08:43:33;101772.41;;;21.90;71.44
69153;BME280;56261;51.580;4.578;2022-08-21T08:46:03;101770.03;;;21.50;72.92
69153;BME280;56261;51.580;4.578;2022-08-21T08:48:46;101773.00;;;21.35;73.17
69153;BME280;56261;51.580;4.578;2022-08-21T08:51:43;101762.31;;;21.97;71.92
69153;BME280;56261;51.580;4.578;2022-08-21T08:54:17;101766.63;;;22.05;69.84
69153;BME280;56261;51.580;4.578;2022-08-21T08:56:44;101757.84;;;22.65;68.24
69153;BME280;56261;51.580;4.578;2022-08-21T08:59:19;101763.50;;;22.64;68.00
69153;BME280;56261;51.580;4.578;2022-08-21T09:01:46;101759.81;;;23.25;65.74
69153;BME280;56261;51.580;4.578;2022-08-21T09:04:12;101758.19;;;24.01;64.55
69153;BME280;56261;51.580;4.578;2022-08-21T09:09:48;101751.41;;;24.39;61.88
69153;BME280;56261;51.580;4.578;2022-08-21T09:15:32;101751.59;;;23.55;63.05
69153;BME280;56261;51.580;4.578;2022-08-21T09:21:09;101756.59;;;23.58;61.96
69153;BME280;56261;51.580;4.578;2022-08-21T09:23:54;101752.78;;;22.50;65.01
69153;BME280;56261;51.580;4.578;2022-08-21T09:26:26;101748.03;;;23.13;64.05
69153;BME280;56261;51.580;4.578;2022-08-21T09:28:55;101756.69;;;22.17;64.62
69153;BME280;56261;51.580;4.578;2022-08-21T09:31:25;101760.81;;;21.76;67.66
69153;BME280;56261;51.580;4.578;2022-08-21T09:34:04;101753.94;;;22.61;64.36
69153;BME280;56261;51.580;4.578;2022-08-21T09:36:50;101757.47;;;23.29;62.69
69153;BME280;56261;51.580;4.578;2022-08-21T09:39:24;101737.41;;;23.65;60.74
69153;BME280;56261;51.580;4.578;2022-08-21T09:41:59;101762.91;;;22.80;62.79
69153;BME280;56261;51.580;4.578;2022-08-21T09:44:30;101755.16;;;21.78;64.04
69153;BME280;56261;51.580;4.578;2022-08-21T09:46:56;101765.41;;;21.51;65.60
69153;BME280;56261;51.580;4.578;2022-08-21T09:49:35;101769.22;;;21.36;66.53
69153;BME280;56261;51.580;4.578;2022-08-21T09:52:03;101748.31;;;21.50;65.88
69153;BME280;56261;51.580;4.578;2022-08-21T09:54:34;101743.47;;;22.21;64.18
69153;BME280;56261;51.580;4.578;2022-08-21T09:57:14;101747.44;;;22.25;62.80
69153;BME280;56261;51.580;4.578;2022-08-21T10:00:17;101742.94;;;22.12;63.03
69153;BME280;56261;51.580;4.578;2022-08-21T10:02:43;101756.78;;;21.86;63.58
69153;BME280;56261;51.580;4.578;2022-08-21T10:07:42;101759.69;;;22.53;63.58
69153;BME280;56261;51.580;4.578;2022-08-21T10:10:29;101749.22;;;23.47;60.10
69153;BME280;56261;51.580;4.578;2022-08-21T10:20:41;101764.34;;;22.83;59.12
69153;BME280;56261;51.580;4.578;2022-08-21T10:36:41;101744.56;;;22.38;59.45
69153;BME280;56261;51.580;4.578;2022-08-21T10:47:55;101734.84;;;22.49;54.77
69153;BME280;56261;51.580;4.578;2022-08-21T10:50:35;101734.38;;;22.71;56.92
69153;BME280;56261;51.580;4.578;2022-08-21T10:53:19;101738.56;;;22.85;56.64
69153;BME280;56261;51.580;4.578;2022-08-21T11:04:36;101737.16;;;23.13;52.75
69153;BME280;56261;51.580;4.578;2022-08-21T11:07:22;101741.28;;;23.04;54.54
69153;BME280;56261;51.580;4.578;2022-08-21T11:09:51;101732.09;;;23.16;54.05
69153;BME280;56261;51.580;4.578;2022-08-21T11:12:53;101740.47;;;23.45;54.84
69153;BME280;56261;51.580;4.578;2022-08-21T11:17:54;101740.94;;;23.54;55.08
69153;BME280;56261;51.580;4.578;2022-08-21T11:20:35;101736.22;;;23.61;54.01
69153;BME280;56261;51.580;4.578;2022-08-21T11:23:08;101740.72;;;23.67;54.50
69153;BME280;56261;51.580;4.578;2022-08-21T11:25:41;101737.31;;;23.72;54.54
69153;BME280;56261;51.580;4.578;2022-08-21T11:28:20;101740.66;;;24.21;53.18
69153;BME280;56261;51.580;4.578;2022-08-21T11:36:23;101739.03;;;23.42;55.40
69153;BME280;56261;51.580;4.578;2022-08-21T11:39:18;101738.66;;;23.39;54.46
69153;BME280;56261;51.580;4.578;2022-08-21T11:41:57;101737.63;;;23.63;55.33
69153;BME280;56261;51.580;4.578;2022-08-21T11:47:02;101740.00;;;22.88;55.42
69153;BME280;56261;51.580;4.578;2022-08-21T11:52:19;101740.97;;;23.66;53.21
69153;BME280;56261;51.580;4.578;2022-08-21T11:57:59;101750.50;;;23.98;53.28
69153;BME280;56261;51.580;4.578;2022-08-21T12:00:30;101729.66;;;23.80;51.62
69153;BME280;56261;51.580;4.578;2022-08-21T12:03:25;101736.84;;;24.10;50.61
69153;BME280;56261;51.580;4.578;2022-08-21T12:06:00;101734.09;;;23.51;50.75
69153;BME280;56261;51.580;4.578;2022-08-21T12:08:31;101731.84;;;23.72;49.89
69153;BME280;56261;51.580;4.578;2022-08-21T12:13:37;101731.28;;;24.05;50.46
69153;BME280;56261;51.580;4.578;2022-08-21T12:18:35;101731.50;;;24.39;49.29
69153;BME280;56261;51.580;4.578;2022-08-21T12:21:32;101745.16;;;23.92;49.09
69153;BME280;56261;51.580;4.578;2022-08-21T12:24:20;101739.94;;;24.02;49.12
69153;BME280;56261;51.580;4.578;2022-08-21T12:26:51;101750.84;;;24.26;49.97
69153;BME280;56261;51.580;4.578;2022-08-21T12:29:23;101737.19;;;24.26;48.70
69153;BME280;56261;51.580;4.578;2022-08-21T12:34:23;101729.25;;;24.36;48.38
69153;BME280;56261;51.580;4.578;2022-08-21T12:36:57;101744.94;;;24.05;51.69
69153;BME280;56261;51.580;4.578;2022-08-21T12:39:27;101745.13;;;24.15;51.42
69153;BME280;56261;51.580;4.578;2022-08-21T12:44:49;101748.09;;;23.67;52.35
69153;BME280;56261;51.580;4.578;2022-08-21T12:47:29;101756.88;;;23.27;52.19
69153;BME280;56261;51.580;4.578;2022-08-21T12:52:30;101749.16;;;23.77;52.09
69153;BME280;56261;51.580;4.578;2022-08-21T12:54:57;101752.84;;;23.95;51.50
69153;BME280;56261;51.580;4.578;2022-08-21T12:57:29;101756.06;;;24.03;51.07
69153;BME280;56261;51.580;4.578;2022-08-21T12:59:58;101750.72;;;24.09;51.35
69153;BME280;56261;51.580;4.578;2022-08-21T13:02:33;101739.69;;;23.80;52.61
69153;BME280;56261;51.580;4.578;2022-08-21T13:05:05;101739.88;;;23.55;52.74
69153;BME280;56261;51.580;4.578;2022-08-21T13:07:32;101746.59;;;23.40;53.10
69153;BME280;56261;51.580;4.578;2022-08-21T13:10:22;101742.59;;;23.13;52.92
69153;BME280;56261;51.580;4.578;2022-08-21T13:12:49;101747.72;;;23.21;53.80
69153;BME280;56261;51.580;4.578;2022-08-21T13:15:23;101755.47;;;23.06;53.25
69153;BME280;56261;51.580;4.578;2022-08-21T13:17:50;101760.38;;;23.15;54.63
69153;BME280;56261;51.580;4.578;2022-08-21T13:20:24;101754.34;;;22.95;55.03
69153;BME280;56261;51.580;4.578;2022-08-21T13:22:51;101752.91;;;23.11;53.83
69153;BME280;56261;51.580;4.578;2022-08-21T13:25:19;101751.84;;;23.12;53.58
69153;BME280;56261;51.580;4.578;2022-08-21T13:27:57;101744.16;;;23.62;51.95
69153;BME280;56261;51.580;4.578;2022-08-21T13:30:23;101748.50;;;23.40;51.16
69153;BME280;56261;51.580;4.578;2022-08-21T13:32:56;101745.53;;;23.41;50.04
69153;BME280;56261;51.580;4.578;2022-08-21T13:35:30;101743.91;;;23.64;50.09
69153;BME280;56261;51.580;4.578;2022-08-21T13:37:56;101744.16;;;23.09;49.60
69153;BME280;56261;51.580;4.578;2022-08-21T13:40:38;101747.13;;;22.89;51.31
69153;BME280;56261;51.580;4.578;2022-08-21T13:43:11;101739.41;;;22.86;51.87
69153;BME280;56261;51.580;4.578;2022-08-21T13:45:37;101750.53;;;22.66;51.62
69153;BME280;56261;51.580;4.578;2022-08-21T13:48:03;101743.28;;;22.78;51.12
69153;BME280;56261;51.580;4.578;2022-08-21T13:50:29;101748.91;;;22.46;51.87
69153;BME280;56261;51.580;4.578;2022-08-21T13:55:24;101746.69;;;22.55;53.36
69153;BME280;56261;51.580;4.578;2022-08-21T13:57:59;101750.78;;;22.64;55.10
69153;BME280;56261;51.580;4.578;2022-08-21T14:00:28;101750.53;;;22.84;55.48
69153;BME280;56261;51.580;4.578;2022-08-21T14:03:00;101742.56;;;23.01;54.22
69153;BME280;56261;51.580;4.578;2022-08-21T14:05:31;101748.25;;;22.81;55.04
69153;BME280;56261;51.580;4.578;2022-08-21T14:08:14;101753.16;;;22.91;54.74
69153;BME280;56261;51.580;4.578;2022-08-21T14:10:51;101751.13;;;23.05;53.31
69153;BME280;56261;51.580;4.578;2022-08-21T14:13:44;101747.81;;;22.84;53.67
69153;BME280;56261;51.580;4.578;2022-08-21T14:16:23;101754.38;;;23.25;54.35
69153;BME280;56261;51.580;4.578;2022-08-21T14:19:11;101750.75;;;22.46;54.61
69153;BME280;56261;51.580;4.578;2022-08-21T14:21:42;101752.59;;;22.33;55.42